createdAt,value
2017-09-15T00:00:31.795Z,25.20
2017-09-15T00:01:31.792Z,19.60
2017-09-15T00:02:31.789Z,22.50
2017-09-15T00:03:31.783Z,23.30
2017-09-15T00:04:31.785Z,22.90
2017-09-15T00:05:31.782Z,22.20
2017-09-15T00:06:31.779Z,27.10
2017-09-15T00:07:31.774Z,21.20
2017-09-15T00:08:31.772Z,19.40
2017-09-15T00:09:31.768Z,19.90
2017-09-15T00:10:31.765Z,21.40
2017-09-15T00:11:31.760Z,20.60
2017-09-15T00:12:31.753Z,22.30
2017-09-15T00:13:31.750Z,18.90
2017-09-15T00:14:31.746Z,23.80
2017-09-15T00:15:31.742Z,24.10
2017-09-15T00:16:31.740Z,22.10
2017-09-15T00:17:31.736Z,17.60
2017-09-15T00:18:31.733Z,21.10
2017-09-15T00:19:31.728Z,26.30
2017-09-15T00:20:31.728Z,20.30
2017-09-15T00:21:31.725Z,16.40
2017-09-15T00:22:31.723Z,18.60
2017-09-15T00:23:31.719Z,23.80
2017-09-15T00:24:31.716Z,18.80
2017-09-15T00:25:31.712Z,20.70
2017-09-15T00:26:31.708Z,25.40
2017-09-15T00:27:31.704Z,14.60
2017-09-15T00:28:31.697Z,22.90
2017-09-15T00:29:31.694Z,17.80
2017-09-15T00:30:31.690Z,20.90
2017-09-15T00:31:31.686Z,15.80
2017-09-15T00:32:31.684Z,20.00
2017-09-15T00:33:31.678Z,15.60
2017-09-15T00:34:31.677Z,15.10
2017-09-15T00:35:31.674Z,23.40
2017-09-15T00:36:31.672Z,17.60
2017-09-15T00:37:31.669Z,22.50
2017-09-15T00:38:31.666Z,15.60
2017-09-15T00:39:31.660Z,21.30
2017-09-15T00:40:31.657Z,16.70
2017-09-15T00:41:31.656Z,24.90
2017-09-15T00:42:31.650Z,15.70
2017-09-15T00:43:31.646Z,19.50
2017-09-15T00:44:31.639Z,19.80
2017-09-15T00:45:31.634Z,21.30
2017-09-15T00:46:31.631Z,22.00
2017-09-15T00:47:31.628Z,20.10
2017-09-15T00:48:31.628Z,17.60
2017-09-15T00:49:31.627Z,18.30
2017-09-15T00:50:31.621Z,15.80
2017-09-15T00:51:31.617Z,24.40
2017-09-15T00:52:31.608Z,21.00
2017-09-15T00:53:31.604Z,24.00
2017-09-15T00:54:31.607Z,22.30
2017-09-15T00:55:31.596Z,17.70
2017-09-15T00:56:31.592Z,19.70
2017-09-15T00:57:31.591Z,23.70
2017-09-15T00:58:31.585Z,16.90
2017-09-15T00:59:31.581Z,19.10
2017-09-15T01:00:31.581Z,16.20
2017-09-15T01:01:31.578Z,18.20
2017-09-15T01:02:31.574Z,18.30
2017-09-15T01:03:31.569Z,19.40
2017-09-15T01:04:31.566Z,22.40
2017-09-15T01:05:31.563Z,16.80
2017-09-15T01:06:31.559Z,21.10
2017-09-15T01:07:31.555Z,15.80
2017-09-15T01:08:31.546Z,15.10
2017-09-15T01:09:31.544Z,14.90
2017-09-15T01:10:31.539Z,18.80
2017-09-15T01:11:31.537Z,17.50
2017-09-15T01:12:31.532Z,16.80
2017-09-15T01:13:31.529Z,21.40
2017-09-15T01:14:31.525Z,12.60
2017-09-15T01:15:31.519Z,18.60
2017-09-15T01:16:31.519Z,16.90
2017-09-15T01:17:31.517Z,13.80
2017-09-15T01:18:31.513Z,15.40
2017-09-15T01:19:31.510Z,14.70
2017-09-15T01:20:31.506Z,15.90
2017-09-15T01:21:31.502Z,14.30
2017-09-15T01:22:31.499Z,16.20
2017-09-15T01:23:31.493Z,16.60
2017-09-15T01:24:31.485Z,16.50
2017-09-15T01:25:31.482Z,16.00
2017-09-15T01:26:31.478Z,16.20
2017-09-15T01:27:31.475Z,14.90
2017-09-15T01:28:31.472Z,14.50
2017-09-15T01:29:31.471Z,17.80
2017-09-15T01:30:31.463Z,14.80
2017-09-15T01:31:31.458Z,17.50
2017-09-15T01:32:31.458Z,14.90
2017-09-15T01:33:31.457Z,18.50
2017-09-15T01:34:31.451Z,17.70
2017-09-15T01:35:31.447Z,17.70
2017-09-15T01:36:31.442Z,16.30
2017-09-15T01:37:31.440Z,18.10
2017-09-15T01:38:31.435Z,21.80
2017-09-15T01:39:31.434Z,16.30
2017-09-15T01:40:31.428Z,17.80
2017-09-15T01:41:31.419Z,15.20
2017-09-15T01:42:31.416Z,20.10
2017-09-15T01:43:31.410Z,17.30
2017-09-15T01:44:31.406Z,20.90
2017-09-15T01:45:31.403Z,17.30
2017-09-15T01:46:31.403Z,17.60
2017-09-15T01:47:31.394Z,19.60
2017-09-15T01:48:31.394Z,20.80
2017-09-15T01:49:31.390Z,20.20
2017-09-15T01:50:31.386Z,17.90
2017-09-15T01:51:31.380Z,16.60
2017-09-15T01:52:31.372Z,22.30
2017-09-15T01:53:31.368Z,25.00
2017-09-15T01:54:31.364Z,21.10
2017-09-15T01:55:31.359Z,21.10
2017-09-15T01:56:31.360Z,15.00
2017-09-15T01:57:31.355Z,23.50
2017-09-15T01:58:31.353Z,24.10
2017-09-15T01:59:31.346Z,25.60
2017-09-15T02:00:31.341Z,20.80
2017-09-15T02:01:31.336Z,21.90
2017-09-15T02:02:31.332Z,19.50
2017-09-15T02:03:31.328Z,18.00
2017-09-15T02:04:31.320Z,22.50
2017-09-15T02:05:31.315Z,21.20
2017-09-15T02:06:31.312Z,20.00
2017-09-15T02:07:31.305Z,18.50
2017-09-15T02:08:31.302Z,20.50
2017-09-15T02:09:31.297Z,19.70
2017-09-15T02:10:31.294Z,24.90
2017-09-15T02:11:31.325Z,22.20
2017-09-15T02:12:31.287Z,20.50
2017-09-15T02:13:31.285Z,20.00
2017-09-15T02:14:31.280Z,25.20
2017-09-15T02:15:31.275Z,25.00
2017-09-15T02:16:31.270Z,22.60
2017-09-15T02:17:31.266Z,22.80
2017-09-15T02:18:31.261Z,20.80
2017-09-15T02:19:31.258Z,24.00
2017-09-15T02:20:31.248Z,25.30
2017-09-15T02:21:31.244Z,26.80
2017-09-15T02:22:31.242Z,28.10
2017-09-15T02:23:31.237Z,26.40
2017-09-15T02:24:31.230Z,23.20
2017-09-15T02:25:31.226Z,29.70
2017-09-15T02:26:31.222Z,25.20
2017-09-15T02:27:31.217Z,26.40
2017-09-15T02:28:31.217Z,32.80
2017-09-15T02:29:31.213Z,24.00
2017-09-15T02:30:31.209Z,30.10
2017-09-15T02:31:31.203Z,28.90
2017-09-15T02:32:31.200Z,26.80
2017-09-15T02:33:31.194Z,23.60
2017-09-15T02:34:31.194Z,24.70
2017-09-15T02:35:31.188Z,26.60
2017-09-15T02:36:31.176Z,25.80
2017-09-15T02:37:31.174Z,28.80
2017-09-15T02:38:31.168Z,28.10
2017-09-15T02:39:31.162Z,31.10
2017-09-15T02:40:31.159Z,32.10
2017-09-15T02:41:31.162Z,30.50
2017-09-15T02:42:31.150Z,29.50
2017-09-15T02:43:31.144Z,31.00
2017-09-15T02:44:31.145Z,34.30
2017-09-15T02:45:31.149Z,33.80
2017-09-15T02:46:31.136Z,33.00
2017-09-15T02:47:31.130Z,32.00
2017-09-15T02:48:31.125Z,31.30
2017-09-15T02:49:31.122Z,37.20
2017-09-15T02:50:31.116Z,34.60
2017-09-15T02:51:31.112Z,31.20
2017-09-15T02:52:31.104Z,28.10
2017-09-15T02:53:31.100Z,29.20
2017-09-15T02:54:31.094Z,34.10
2017-09-15T02:55:31.089Z,32.40
2017-09-15T02:56:31.089Z,32.30
2017-09-15T02:57:31.084Z,32.60
2017-09-15T02:58:31.081Z,31.80
2017-09-15T02:59:31.074Z,28.10
2017-09-15T03:00:31.067Z,31.50
2017-09-15T03:01:31.061Z,35.30
2017-09-15T03:02:31.058Z,26.00
2017-09-15T03:03:31.053Z,32.70
2017-09-15T03:04:31.049Z,28.30
2017-09-15T03:05:31.043Z,30.50
2017-09-15T03:06:31.061Z,33.50
2017-09-15T03:07:31.034Z,35.90
2017-09-15T03:08:31.034Z,32.40
2017-09-15T03:09:31.032Z,33.60
2017-09-15T03:10:31.025Z,36.30
2017-09-15T03:11:31.020Z,27.60
2017-09-15T03:12:31.017Z,29.90
2017-09-15T03:13:31.011Z,31.00
2017-09-15T03:14:31.008Z,32.10
2017-09-15T03:15:31.002Z,31.20
2017-09-15T03:16:30.994Z,33.00
2017-09-15T03:17:30.989Z,30.40
2017-09-15T03:18:30.987Z,33.30
2017-09-15T03:19:30.981Z,29.90
2017-09-15T03:20:30.976Z,28.90
2017-09-15T03:21:30.975Z,32.50
2017-09-15T03:22:30.968Z,31.10
2017-09-15T03:23:30.965Z,28.80
2017-09-15T03:24:30.964Z,30.80
2017-09-15T03:25:30.959Z,35.60
2017-09-15T03:26:30.956Z,36.50
2017-09-15T03:27:30.950Z,27.90
2017-09-15T03:28:30.947Z,32.30
2017-09-15T03:29:30.942Z,35.30
2017-09-15T03:30:30.940Z,32.70
2017-09-15T03:31:30.934Z,35.80
2017-09-15T03:32:30.925Z,30.40
2017-09-15T03:33:30.922Z,27.20
2017-09-15T03:34:30.919Z,29.70
2017-09-15T03:35:30.912Z,35.40
2017-09-15T03:36:30.909Z,26.30
2017-09-15T03:37:30.906Z,27.40
2017-09-15T03:38:30.901Z,28.00
2017-09-15T03:39:30.900Z,29.00
2017-09-15T03:40:30.897Z,26.40
2017-09-15T03:41:30.893Z,27.20
2017-09-15T03:42:30.890Z,27.40
2017-09-15T03:43:30.885Z,28.20
2017-09-15T03:44:30.880Z,26.80
2017-09-15T03:45:30.876Z,26.90
2017-09-15T03:46:30.873Z,25.30
2017-09-15T03:47:30.869Z,24.50
2017-09-15T03:48:30.860Z,22.20
2017-09-15T03:49:30.857Z,25.80
2017-09-15T03:50:30.853Z,23.50
2017-09-15T03:51:30.850Z,28.10
2017-09-15T03:52:30.844Z,24.90
2017-09-15T03:53:30.841Z,25.90
2017-09-15T03:54:30.836Z,24.60
2017-09-15T03:55:30.831Z,24.90
2017-09-15T03:56:30.833Z,22.20
2017-09-15T03:57:30.829Z,31.50
2017-09-15T03:58:30.824Z,25.70
2017-09-15T03:59:30.821Z,25.60
2017-09-15T04:00:30.812Z,22.00
2017-09-15T04:01:30.808Z,27.30
2017-09-15T04:02:30.805Z,20.70
2017-09-15T04:03:30.799Z,23.90
2017-09-15T04:04:30.799Z,32.60
2017-09-15T04:05:30.802Z,25.20
2017-09-15T04:06:30.794Z,24.60
2017-09-15T04:07:30.788Z,26.70
2017-09-15T04:08:30.784Z,20.50
2017-09-15T04:09:30.780Z,24.30
2017-09-15T04:10:30.778Z,25.60
2017-09-15T04:11:30.771Z,25.40
2017-09-15T04:12:30.763Z,21.40
2017-09-15T04:13:30.761Z,24.90
2017-09-15T04:14:30.756Z,26.10
2017-09-15T04:15:30.753Z,24.50
2017-09-15T04:16:30.748Z,25.20
2017-09-15T04:17:30.744Z,22.40
2017-09-15T04:18:30.741Z,28.70
2017-09-15T04:19:30.736Z,26.80
2017-09-15T04:20:30.737Z,27.50
2017-09-15T04:21:30.733Z,25.40
2017-09-15T04:22:30.727Z,29.20
2017-09-15T04:23:30.724Z,24.50
2017-09-15T04:24:30.720Z,22.30
2017-09-15T04:25:30.715Z,22.30
2017-09-15T04:26:30.712Z,27.00
2017-09-15T04:27:30.708Z,21.00
2017-09-15T04:28:30.699Z,18.70
2017-09-15T04:29:30.697Z,19.30
2017-09-15T04:30:30.692Z,23.70
2017-09-15T04:31:30.687Z,25.60
2017-09-15T04:32:30.685Z,24.20
2017-09-15T04:33:30.679Z,24.50
2017-09-15T04:34:30.677Z,19.70
2017-09-15T04:35:30.673Z,25.40
2017-09-15T04:36:30.673Z,21.60
2017-09-15T04:37:30.667Z,23.50
2017-09-15T04:38:30.664Z,25.60
2017-09-15T04:39:30.661Z,25.20
2017-09-15T04:40:30.657Z,23.60
2017-09-15T04:41:30.652Z,22.40
2017-09-15T04:42:30.648Z,23.00
2017-09-15T04:43:30.643Z,28.70
2017-09-15T04:44:30.635Z,21.40
2017-09-15T04:45:30.638Z,24.50
2017-09-15T04:46:30.628Z,27.70
2017-09-15T04:47:30.622Z,20.00
2017-09-15T04:48:30.618Z,22.40
2017-09-15T04:49:30.615Z,22.20
2017-09-15T04:50:30.621Z,22.70
2017-09-15T04:51:30.607Z,27.60
2017-09-15T04:52:30.607Z,26.90
2017-09-15T04:53:30.604Z,23.20
2017-09-15T04:54:30.598Z,22.20
2017-09-15T04:55:30.596Z,21.30
2017-09-15T04:56:30.592Z,18.50
2017-09-15T04:57:30.588Z,22.70
2017-09-15T04:58:30.583Z,25.30
2017-09-15T04:59:30.578Z,24.30
2017-09-15T05:00:30.570Z,23.20
2017-09-15T05:01:30.573Z,20.20
2017-09-15T05:02:30.563Z,27.00
2017-09-15T05:03:30.558Z,21.20
2017-09-15T05:04:30.554Z,24.00
2017-09-15T05:05:30.550Z,24.90
2017-09-15T05:06:30.547Z,23.50
2017-09-15T05:07:30.542Z,16.60
2017-09-15T05:08:30.542Z,28.20
2017-09-15T05:09:30.543Z,23.00
2017-09-15T05:10:30.535Z,17.20
2017-09-15T05:11:30.530Z,23.00
2017-09-15T05:12:30.527Z,17.00
2017-09-15T05:13:30.522Z,18.70
2017-09-15T05:14:30.519Z,24.10
2017-09-15T05:15:30.513Z,18.50
2017-09-15T05:16:30.506Z,20.30
2017-09-15T05:17:30.502Z,22.40
2017-09-15T05:18:30.499Z,21.50
2017-09-15T05:19:30.496Z,21.30
2017-09-15T05:20:30.489Z,23.00
2017-09-15T05:21:30.486Z,20.20
2017-09-15T05:22:30.482Z,19.80
2017-09-15T05:23:30.477Z,24.00
2017-09-15T05:24:30.477Z,21.10
2017-09-15T05:25:30.473Z,21.70
2017-09-15T05:26:30.469Z,22.10
2017-09-15T05:27:30.465Z,19.10
2017-09-15T05:28:30.460Z,20.80
2017-09-15T05:29:30.456Z,24.70
2017-09-15T05:30:30.453Z,22.30
2017-09-15T05:31:30.451Z,24.50
2017-09-15T05:32:30.442Z,27.00
2017-09-15T05:33:30.437Z,20.00
2017-09-15T05:34:30.434Z,22.50
2017-09-15T05:35:30.429Z,18.80
2017-09-15T05:36:30.429Z,18.40
2017-09-15T05:37:30.422Z,22.80
2017-09-15T05:38:30.417Z,22.10
2017-09-15T05:39:30.413Z,18.30
2017-09-15T05:40:30.413Z,19.90
2017-09-15T05:41:30.410Z,20.40
2017-09-15T05:42:30.406Z,16.30
2017-09-15T05:43:30.402Z,25.80
2017-09-15T05:44:30.398Z,16.90
2017-09-15T05:45:30.402Z,19.90
2017-09-15T05:46:30.394Z,21.90
2017-09-15T05:47:30.385Z,17.80
2017-09-15T05:48:30.379Z,20.20
2017-09-15T05:49:30.373Z,15.40
2017-09-15T05:50:30.370Z,18.60
2017-09-15T05:51:30.365Z,17.00
2017-09-15T05:52:30.363Z,22.70
2017-09-15T05:53:30.359Z,20.30
2017-09-15T05:54:30.355Z,18.00
2017-09-15T05:55:30.350Z,17.20
2017-09-15T05:56:30.351Z,19.80
2017-09-15T05:57:30.348Z,13.70
2017-09-15T05:58:30.345Z,19.60
2017-09-15T05:59:30.340Z,17.10
2017-09-15T06:00:30.337Z,22.70
2017-09-15T06:01:30.332Z,17.90
2017-09-15T06:02:30.328Z,19.60
2017-09-15T06:03:30.326Z,19.30
2017-09-15T06:04:30.318Z,20.50
2017-09-15T06:05:30.319Z,15.90
2017-09-15T06:06:30.311Z,15.50
2017-09-15T06:07:30.307Z,18.40
2017-09-15T06:08:30.307Z,21.30
2017-09-15T06:09:30.303Z,21.00
2017-09-15T06:10:30.301Z,17.70
2017-09-15T06:11:30.296Z,14.60
2017-09-15T06:12:30.290Z,17.70
2017-09-15T06:13:30.288Z,17.10
2017-09-15T06:14:30.282Z,21.10
2017-09-15T06:15:30.279Z,13.70
2017-09-15T06:16:30.275Z,17.90
2017-09-15T06:17:30.273Z,16.70
2017-09-15T06:18:30.270Z,16.60
2017-09-15T06:19:30.265Z,16.80
2017-09-15T06:20:30.266Z,13.80
2017-09-15T06:21:30.264Z,14.90
2017-09-15T06:22:30.264Z,16.50
2017-09-15T06:23:30.257Z,17.50
2017-09-15T06:24:30.253Z,19.90
2017-09-15T06:25:30.250Z,15.30
2017-09-15T06:26:30.247Z,17.40
2017-09-15T06:27:30.243Z,18.90
2017-09-15T06:28:30.236Z,13.60
2017-09-15T06:29:30.233Z,16.30
2017-09-15T06:30:30.230Z,13.80
2017-09-15T06:31:30.225Z,16.10
2017-09-15T06:32:30.221Z,15.50
2017-09-15T06:33:30.218Z,19.70
2017-09-15T06:34:30.223Z,15.10
2017-09-15T06:35:30.214Z,15.50
2017-09-15T06:36:30.214Z,17.80
2017-09-15T06:37:30.210Z,16.40
2017-09-15T06:38:30.206Z,19.20
2017-09-15T06:39:30.202Z,19.70
2017-09-15T06:40:30.198Z,18.40
2017-09-15T06:41:30.197Z,19.40
2017-09-15T06:42:30.194Z,17.60
2017-09-15T06:43:30.190Z,16.90
2017-09-15T06:44:30.182Z,18.90
2017-09-15T06:45:30.178Z,16.50
2017-09-15T06:46:30.176Z,20.90
2017-09-15T06:47:30.170Z,16.00
2017-09-15T06:48:30.168Z,19.80
2017-09-15T06:49:30.165Z,14.60
2017-09-15T06:50:30.163Z,15.60
2017-09-15T06:51:30.158Z,15.70
2017-09-15T06:52:30.159Z,17.20
2017-09-15T06:53:30.154Z,17.20
2017-09-15T06:54:30.153Z,15.60
2017-09-15T06:55:30.148Z,17.50
2017-09-15T06:56:30.144Z,18.20
2017-09-15T06:57:30.180Z,16.00
2017-09-15T06:58:30.138Z,13.60
2017-09-15T06:59:30.134Z,15.40
2017-09-15T07:00:30.126Z,15.30
2017-09-15T07:01:30.123Z,13.90
2017-09-15T07:02:30.121Z,16.30
2017-09-15T07:03:30.117Z,19.20
2017-09-15T07:04:30.113Z,15.30
2017-09-15T07:05:30.111Z,13.70
2017-09-15T07:06:30.108Z,14.90
2017-09-15T07:07:30.102Z,17.50
2017-09-15T07:08:30.106Z,16.50
2017-09-15T07:09:30.101Z,16.60
2017-09-15T07:10:30.098Z,16.50
2017-09-15T07:11:30.093Z,16.80
2017-09-15T07:12:30.087Z,14.30
2017-09-15T07:13:30.084Z,12.60
2017-09-15T07:14:30.081Z,17.00
2017-09-15T07:15:30.077Z,12.10
2017-09-15T07:16:30.080Z,18.70
2017-09-15T07:17:30.074Z,20.50
2017-09-15T07:18:30.071Z,17.10
2017-09-15T07:19:30.067Z,22.40
2017-09-15T07:20:30.068Z,11.90
2017-09-15T07:21:30.063Z,15.80
2017-09-15T07:22:30.059Z,16.20
2017-09-15T07:23:30.057Z,17.70
2017-09-15T07:24:30.058Z,13.50
2017-09-15T07:25:30.046Z,14.50
2017-09-15T07:26:30.042Z,16.50
2017-09-15T07:27:30.038Z,16.40
2017-09-15T07:28:30.036Z,16.50
2017-09-15T07:29:30.036Z,13.20
2017-09-15T07:30:30.031Z,15.30
2017-09-15T07:31:30.026Z,15.60
2017-09-15T07:32:30.026Z,15.00
2017-09-15T07:33:30.022Z,18.80
2017-09-15T07:34:30.020Z,14.00
2017-09-15T07:35:30.016Z,15.80
2017-09-15T07:36:30.014Z,14.50
2017-09-15T07:37:30.010Z,16.20
2017-09-15T07:38:30.010Z,18.30
2017-09-15T07:39:30.009Z,14.80
2017-09-15T07:40:29.997Z,11.80
2017-09-15T07:41:29.995Z,15.30
2017-09-15T07:42:29.991Z,13.80
2017-09-15T07:43:29.989Z,13.40
2017-09-15T07:44:29.986Z,14.00
2017-09-15T07:45:29.982Z,13.50
2017-09-15T07:46:29.980Z,12.40
2017-09-15T07:47:29.976Z,16.70
2017-09-15T07:48:29.978Z,13.40
2017-09-15T07:49:29.977Z,13.40
2017-09-15T07:50:29.973Z,13.00
2017-09-15T07:51:29.971Z,13.70
2017-09-15T07:52:29.967Z,16.60
2017-09-15T07:53:29.965Z,16.70
2017-09-15T07:54:29.962Z,16.20
2017-09-15T07:55:29.959Z,15.70
2017-09-15T07:56:29.952Z,13.10
2017-09-15T07:57:29.950Z,15.60
2017-09-15T07:58:29.946Z,14.40
2017-09-15T07:59:29.944Z,12.90
2017-09-15T08:00:29.941Z,17.90
2017-09-15T08:01:29.938Z,16.40
2017-09-15T08:02:29.936Z,15.00
2017-09-15T08:03:29.932Z,15.80
2017-09-15T08:04:29.933Z,16.50
2017-09-15T08:05:29.932Z,15.10
2017-09-15T08:06:29.929Z,15.70
2017-09-15T08:07:29.926Z,18.50
2017-09-15T08:08:29.924Z,16.00
2017-09-15T08:09:29.921Z,17.70
2017-09-15T08:10:29.918Z,16.70
2017-09-15T08:11:29.916Z,18.20
2017-09-15T08:12:29.908Z,20.30
2017-09-15T08:13:29.906Z,14.60
2017-09-15T08:14:29.904Z,16.50
2017-09-15T08:15:29.899Z,15.20
2017-09-15T08:16:29.901Z,12.00
2017-09-15T08:17:29.900Z,12.40
2017-09-15T08:18:29.895Z,12.50
2017-09-15T08:19:29.893Z,9.80
2017-09-15T08:20:29.886Z,12.00
2017-09-15T08:21:29.885Z,12.20
2017-09-15T08:22:29.882Z,11.40
2017-09-15T08:23:29.880Z,9.90
2017-09-15T08:24:29.877Z,10.70
2017-09-15T08:25:29.876Z,13.60
2017-09-15T08:26:29.873Z,11.40
2017-09-15T08:27:29.871Z,10.60
2017-09-15T08:28:29.874Z,11.40
2017-09-15T08:29:29.872Z,9.30
2017-09-15T08:30:29.871Z,11.10
2017-09-15T08:31:29.868Z,9.80
2017-09-15T08:32:29.872Z,11.70
2017-09-15T08:33:29.866Z,12.50
2017-09-15T08:34:29.868Z,14.50
2017-09-15T08:35:29.941Z,16.20
2017-09-15T08:36:29.871Z,11.90
2017-09-15T08:37:29.857Z,11.20
2017-09-15T08:38:29.906Z,11.70
2017-09-15T08:39:29.886Z,11.20
2017-09-15T08:40:29.853Z,12.90
2017-09-15T08:41:29.852Z,12.40
2017-09-15T08:42:29.852Z,10.80
2017-09-15T08:43:29.853Z,12.20
2017-09-15T08:44:29.853Z,11.50
2017-09-15T08:45:29.853Z,11.70
2017-09-15T08:46:29.853Z,9.10
2017-09-15T08:47:29.852Z,11.10
2017-09-15T08:48:29.853Z,14.10
2017-09-15T08:49:29.848Z,12.20
2017-09-15T08:50:29.849Z,12.10
2017-09-15T08:51:29.847Z,11.60
2017-09-15T08:52:29.842Z,14.50
2017-09-15T08:53:29.841Z,9.70
2017-09-15T08:54:29.841Z,11.80
2017-09-15T08:55:29.839Z,12.20
2017-09-15T08:56:29.838Z,11.90
2017-09-15T08:57:29.837Z,10.80
2017-09-15T08:58:29.836Z,9.00
2017-09-15T08:59:29.835Z,10.70
2017-09-15T09:00:29.839Z,8.60
2017-09-15T09:01:29.837Z,10.90
2017-09-15T09:02:29.838Z,10.10
2017-09-15T09:03:29.835Z,12.60
2017-09-15T09:04:29.834Z,10.30
2017-09-15T09:05:29.834Z,10.00
2017-09-15T09:06:29.832Z,8.10
2017-09-15T09:07:29.834Z,6.50
2017-09-15T09:08:29.827Z,11.10
2017-09-15T09:09:29.831Z,7.70
2017-09-15T09:10:29.827Z,7.10
2017-09-15T09:11:29.825Z,8.30
2017-09-15T09:12:29.824Z,9.10
2017-09-15T09:13:29.824Z,5.10
2017-09-15T09:14:29.825Z,11.10
2017-09-15T09:15:29.823Z,9.30
2017-09-15T09:16:29.826Z,9.10
2017-09-15T09:17:29.826Z,7.60
2017-09-15T09:18:29.826Z,10.70
2017-09-15T09:19:29.823Z,8.60
2017-09-15T09:20:29.820Z,5.60
2017-09-15T09:21:29.821Z,7.30
2017-09-15T09:22:29.820Z,9.30
2017-09-15T09:23:29.818Z,6.80
2017-09-15T09:24:29.822Z,9.00
2017-09-15T09:25:29.820Z,9.40
2017-09-15T09:26:29.822Z,9.60
2017-09-15T09:27:29.820Z,6.70
2017-09-15T09:28:29.819Z,8.50
2017-09-15T09:29:29.818Z,10.70
2017-09-15T09:30:29.822Z,10.30
2017-09-15T09:31:29.816Z,8.20
2017-09-15T09:32:29.817Z,8.10
2017-09-15T09:33:29.815Z,12.50
2017-09-15T09:34:29.811Z,11.10
2017-09-15T09:35:29.810Z,9.30
2017-09-15T09:36:29.808Z,10.30
2017-09-15T09:37:29.808Z,6.80
2017-09-15T09:38:29.835Z,9.00
2017-09-15T09:39:29.806Z,9.00
2017-09-15T09:40:29.809Z,9.50
2017-09-15T09:41:29.813Z,6.50
2017-09-15T09:42:29.810Z,8.90
2017-09-15T09:43:29.809Z,7.70
2017-09-15T09:44:29.809Z,10.40
2017-09-15T09:45:29.812Z,8.00
2017-09-15T09:46:29.811Z,9.70
2017-09-15T09:47:29.809Z,8.20
2017-09-15T09:48:29.807Z,8.80
2017-09-15T09:49:29.814Z,7.40
2017-09-15T09:50:29.806Z,7.80
2017-09-15T09:51:29.808Z,6.30
2017-09-15T09:52:29.809Z,7.50
2017-09-15T09:53:29.811Z,8.30
2017-09-15T09:54:29.812Z,8.00
2017-09-15T09:55:29.814Z,6.10
2017-09-15T09:56:29.821Z,8.40
2017-09-15T09:57:29.824Z,6.10
2017-09-15T09:58:29.826Z,5.60
2017-09-15T09:59:29.830Z,6.00
2017-09-15T10:00:29.837Z,5.40
2017-09-15T10:01:29.839Z,3.80
2017-09-15T10:02:29.844Z,5.60
2017-09-15T10:03:29.848Z,6.00
2017-09-15T10:04:29.850Z,3.80
2017-09-15T10:05:29.856Z,4.50
2017-09-15T10:06:29.861Z,3.90
2017-09-15T10:07:29.870Z,6.30
2017-09-15T10:08:29.873Z,7.60
2017-09-15T10:09:29.880Z,4.10
2017-09-15T10:10:29.886Z,6.10
2017-09-15T10:11:29.892Z,4.30
2017-09-15T10:12:29.903Z,6.90
2017-09-15T10:13:29.911Z,5.50
2017-09-15T10:14:29.917Z,6.10
2017-09-15T10:15:29.921Z,4.20
2017-09-15T10:16:29.928Z,6.00
2017-09-15T10:17:29.936Z,4.50
2017-09-15T10:18:29.944Z,3.70
2017-09-15T10:19:29.951Z,5.20
2017-09-15T10:20:29.955Z,4.70
2017-09-15T10:21:29.961Z,5.80
2017-09-15T10:22:29.968Z,6.10
2017-09-15T10:23:29.994Z,5.40
2017-09-15T10:24:29.986Z,4.90
2017-09-15T10:25:29.995Z,4.30
2017-09-15T10:26:30.002Z,3.10
2017-09-15T10:27:30.008Z,3.50
2017-09-15T10:28:30.012Z,11.90
2017-09-15T10:29:30.018Z,8.00
2017-09-15T10:30:30.025Z,5.30
2017-09-15T10:31:30.030Z,6.20
2017-09-15T10:32:30.036Z,4.40
2017-09-15T10:33:30.043Z,4.00
2017-09-15T10:34:30.050Z,6.20
2017-09-15T10:35:30.054Z,4.20
2017-09-15T10:36:30.064Z,4.40
2017-09-15T10:37:30.068Z,5.40
2017-09-15T10:38:30.075Z,4.40
2017-09-15T10:39:30.088Z,6.40
2017-09-15T10:40:30.088Z,3.80
2017-09-15T10:41:30.089Z,3.30
2017-09-15T10:42:30.093Z,6.00
2017-09-15T10:43:30.096Z,4.70
2017-09-15T10:44:30.096Z,4.60
2017-09-15T10:45:30.101Z,6.10
2017-09-15T10:46:30.104Z,5.30
2017-09-15T10:47:30.107Z,4.70
2017-09-15T10:48:30.110Z,7.00
2017-09-15T10:49:30.114Z,3.90
2017-09-15T10:50:30.119Z,5.40
2017-09-15T10:51:30.120Z,7.10
2017-09-15T10:52:30.127Z,6.30
2017-09-15T10:53:30.133Z,5.70
2017-09-15T10:54:30.133Z,5.40
2017-09-15T10:55:30.136Z,5.50
2017-09-15T10:56:30.139Z,6.30
2017-09-15T10:57:30.142Z,5.40
2017-09-15T10:58:30.145Z,9.00
2017-09-15T10:59:30.148Z,5.30
2017-09-15T11:00:30.146Z,5.90
2017-09-15T11:01:30.149Z,8.40
2017-09-15T11:02:30.153Z,4.40
2017-09-15T11:03:30.155Z,4.80
2017-09-15T11:04:30.157Z,5.20
2017-09-15T11:05:30.160Z,4.00
2017-09-15T11:06:30.164Z,7.30
2017-09-15T11:07:30.164Z,6.50
2017-09-15T11:08:30.172Z,7.80
2017-09-15T11:09:30.174Z,5.80
2017-09-15T11:10:30.175Z,7.20
2017-09-15T11:11:30.178Z,9.00
2017-09-15T11:12:30.180Z,9.10
2017-09-15T11:13:30.184Z,6.00
2017-09-15T11:14:30.183Z,7.00
2017-09-15T11:15:30.183Z,7.70
2017-09-15T11:16:30.182Z,7.60
2017-09-15T11:17:30.183Z,5.10
2017-09-15T11:18:30.185Z,5.00
2017-09-15T11:19:30.183Z,10.70
2017-09-15T11:20:30.185Z,8.50
2017-09-15T11:21:30.186Z,11.10
2017-09-15T11:22:30.187Z,13.60
2017-09-15T11:23:30.187Z,8.00
2017-09-15T11:24:30.192Z,9.30
2017-09-15T11:25:30.192Z,8.70
2017-09-15T11:26:30.199Z,9.00
2017-09-15T11:27:30.192Z,7.90
2017-09-15T11:28:30.188Z,8.00
2017-09-15T11:29:30.187Z,9.20
2017-09-15T11:30:30.196Z,6.20
2017-09-15T11:31:30.185Z,9.90
2017-09-15T11:32:30.190Z,5.90
2017-09-15T11:33:30.193Z,7.90
2017-09-15T11:34:30.190Z,5.90
2017-09-15T11:35:30.188Z,6.10
2017-09-15T11:36:30.189Z,8.30
2017-09-15T11:37:30.187Z,7.80
2017-09-15T11:38:30.188Z,6.00
2017-09-15T11:39:30.187Z,6.50
2017-09-15T11:40:30.182Z,6.70
2017-09-15T11:41:30.186Z,6.10
2017-09-15T11:42:30.181Z,7.40
2017-09-15T11:43:30.180Z,6.20
2017-09-15T11:44:30.180Z,8.40
2017-09-15T11:45:30.180Z,5.90
2017-09-15T11:46:30.178Z,6.10
2017-09-15T11:47:30.176Z,8.40
2017-09-15T11:48:30.181Z,6.30
2017-09-15T11:49:30.179Z,6.80
2017-09-15T11:50:30.180Z,6.80
2017-09-15T11:51:30.178Z,7.40
2017-09-15T11:52:30.179Z,7.90
2017-09-15T11:53:30.178Z,6.20
2017-09-15T11:54:30.177Z,8.10
2017-09-15T11:55:30.176Z,9.20
2017-09-15T11:56:30.170Z,7.20
2017-09-15T11:57:30.170Z,7.80
2017-09-15T11:58:30.170Z,7.10
2017-09-15T11:59:30.169Z,8.40
2017-09-15T12:00:30.169Z,9.60
2017-09-15T12:01:30.168Z,7.10
2017-09-15T12:02:30.170Z,11.20
2017-09-15T12:03:30.169Z,5.70
2017-09-15T12:04:30.172Z,5.40
2017-09-15T12:05:30.171Z,6.40
2017-09-15T12:06:30.172Z,4.80
2017-09-15T12:07:30.172Z,5.90
2017-09-15T12:08:30.172Z,4.50
2017-09-15T12:09:30.173Z,6.30
2017-09-15T12:10:30.172Z,8.70
2017-09-15T12:11:30.173Z,4.10
2017-09-15T12:12:30.169Z,10.80
2017-09-15T12:13:30.171Z,4.30
2017-09-15T12:14:30.171Z,3.60
2017-09-15T12:15:30.172Z,3.60
2017-09-15T12:16:30.172Z,2.90
2017-09-15T12:17:30.173Z,3.90
2017-09-15T12:18:30.174Z,3.60
2017-09-15T12:19:30.174Z,6.90
2017-09-15T12:20:30.179Z,3.70
2017-09-15T12:21:30.180Z,2.80
2017-09-15T12:22:30.181Z,5.10
2017-09-15T12:23:30.182Z,5.80
2017-09-15T12:24:30.183Z,2.80
2017-09-15T12:25:30.183Z,4.20
2017-09-15T12:26:30.185Z,2.70
2017-09-15T12:27:30.186Z,3.00
2017-09-15T12:28:30.182Z,3.80
2017-09-15T12:29:30.185Z,4.20
2017-09-15T12:30:30.185Z,4.40
2017-09-15T12:31:30.186Z,4.20
2017-09-15T12:32:30.191Z,4.50
2017-09-15T12:33:30.194Z,4.20
2017-09-15T12:34:30.196Z,4.00
2017-09-15T12:35:30.196Z,3.40
2017-09-15T12:36:30.193Z,4.70
2017-09-15T12:37:30.197Z,6.40
2017-09-15T12:38:30.198Z,4.10
2017-09-15T12:39:30.199Z,4.20
2017-09-15T12:40:30.201Z,3.50
2017-09-15T12:41:30.204Z,4.00
2017-09-15T12:42:30.207Z,3.00
2017-09-15T12:43:30.212Z,5.30
2017-09-15T12:44:30.213Z,5.50
2017-09-15T12:45:30.215Z,6.30
2017-09-15T12:46:30.217Z,4.40
2017-09-15T12:47:30.219Z,3.20
2017-09-15T12:48:30.220Z,3.00
2017-09-15T12:49:30.223Z,3.20
2017-09-15T12:50:30.224Z,3.10
2017-09-15T12:51:30.225Z,3.20
2017-09-15T12:52:30.224Z,4.40
2017-09-15T12:53:30.224Z,7.30
2017-09-15T12:54:30.226Z,3.40
2017-09-15T12:55:30.251Z,3.60
2017-09-15T12:56:30.231Z,4.90
2017-09-15T12:57:30.238Z,3.70
2017-09-15T12:58:30.230Z,3.30
2017-09-15T12:59:30.232Z,3.80
2017-09-15T13:00:30.237Z,5.40